Terminal Aerodrome Forecast
Issued by NWS

Home | Current Version | Previous Version | Text Only | Print | Product List | Glossary On
Versions: 1 2 3 4 5 6 7 8 9 10 11 12 13 14 15 16 17 18 19 20
000
FTUS41 KPBZ 260520
TAFBVI
TAF
KBVI 260520Z 2606/2706 30005KT P6SM BKN015
     FM260900 28003KT P6SM BKN020
     FM261000 27003KT P6SM SCT020
      TEMPO 2610/2612 3SM BR
     FM261600 29006KT P6SM SCT035
      AMD NOT SKED=

USA.gov is the U.S. government's official web portal to all federal, state and local government web resources and services.